createdAt,value
2023-05-23T00:00:25.987Z,13.14
2023-05-23T00:02:53.428Z,12.91
2023-05-23T00:05:20.905Z,12.89
2023-05-23T00:07:48.322Z,12.88
2023-05-23T00:10:15.669Z,12.92
2023-05-23T00:12:42.903Z,12.93
2023-05-23T00:15:10.433Z,12.92
2023-05-23T00:17:38.418Z,12.98
2023-05-23T00:20:11.756Z,12.95
2023-05-23T00:22:43.271Z,13.05
2023-05-23T00:25:11.222Z,13.12
2023-05-23T00:27:38.524Z,13.10
2023-05-23T00:30:06.581Z,13.13
2023-05-23T00:32:34.500Z,13.21
2023-05-23T00:35:01.695Z,13.18
2023-05-23T00:37:28.919Z,13.17
2023-05-23T00:39:56.245Z,13.18
2023-05-23T00:42:23.551Z,13.06
2023-05-23T00:44:51.364Z,13.16
2023-05-23T00:47:18.772Z,13.00
2023-05-23T00:49:46.658Z,12.94
2023-05-23T00:52:15.852Z,12.87
2023-05-23T00:54:43.450Z,12.87
2023-05-23T00:57:11.378Z,12.79
2023-05-23T00:59:39.143Z,12.86
2023-05-23T01:02:06.905Z,12.76
2023-05-23T01:04:36.131Z,12.73
2023-05-23T01:07:03.841Z,12.82
2023-05-23T01:09:32.106Z,12.50
2023-05-23T01:12:25.798Z,12.50
2023-05-23T01:15:08.995Z,12.41
2023-05-23T01:18:16.634Z,12.24
2023-05-23T01:21:01.639Z,12.28
2023-05-23T01:23:55.793Z,12.18
2023-05-23T01:27:16.367Z,12.18
2023-05-23T01:29:53.254Z,12.08
2023-05-23T01:32:23.068Z,12.19
2023-05-23T01:34:54.399Z,12.14
2023-05-23T01:37:21.749Z,12.17
2023-05-23T01:39:49.187Z,12.09
2023-05-23T01:42:16.828Z,12.09
2023-05-23T01:44:46.919Z,12.10
2023-05-23T01:47:16.687Z,11.97
2023-05-23T01:49:45.818Z,11.90
2023-05-23T01:52:15.710Z,11.89
2023-05-23T01:54:44.501Z,11.93
2023-05-23T01:57:13.804Z,11.86
2023-05-23T01:59:41.214Z,11.89
2023-05-23T02:02:09.547Z,11.86
2023-05-23T02:04:36.867Z,11.92
2023-05-23T02:07:04.305Z,11.82
2023-05-23T02:09:31.670Z,11.83
2023-05-23T02:11:59.724Z,11.89
2023-05-23T02:14:28.552Z,11.91
2023-05-23T02:16:55.911Z,11.92
2023-05-23T02:19:23.510Z,11.97
2023-05-23T02:21:50.841Z,11.70
2023-05-23T02:24:18.867Z,11.71
2023-05-23T02:26:46.265Z,11.89
2023-05-23T02:29:13.505Z,11.91
2023-05-23T02:31:40.813Z,11.81
2023-05-23T02:34:08.157Z,11.65
2023-05-23T02:36:37.262Z,11.64
2023-05-23T02:39:05.134Z,11.40
2023-05-23T02:41:32.956Z,11.36
2023-05-23T02:44:00.421Z,11.41
2023-05-23T02:46:29.069Z,11.35
2023-05-23T02:48:56.461Z,11.30
2023-05-23T02:51:23.722Z,11.42
2023-05-23T02:53:51.164Z,11.38
2023-05-23T02:56:18.963Z,11.42
2023-05-23T02:58:46.585Z,11.40
2023-05-23T03:01:14.044Z,11.32
2023-05-23T03:03:42.145Z,11.39
2023-05-23T03:06:10.705Z,11.56
2023-05-23T03:08:38.085Z,11.60
2023-05-23T03:11:05.605Z,11.50
2023-05-23T03:13:32.952Z,11.58
2023-05-23T03:16:00.282Z,11.78
2023-05-23T03:18:27.614Z,11.81
2023-05-23T03:20:56.100Z,11.89
2023-05-23T03:23:24.256Z,11.84
2023-05-23T03:25:51.536Z,11.91
2023-05-23T03:28:18.764Z,11.89
2023-05-23T03:30:46.037Z,11.91
2023-05-23T03:33:13.349Z,12.07
2023-05-23T03:35:40.777Z,12.30
2023-05-23T03:38:08.362Z,12.34
2023-05-23T03:40:35.607Z,12.55
2023-05-23T03:43:07.302Z,12.82
2023-05-23T03:45:37.281Z,12.89
2023-05-23T03:48:11.461Z,13.02
2023-05-23T03:50:40.494Z,13.21
2023-05-23T03:53:08.205Z,13.47
2023-05-23T03:55:36.308Z,13.78
2023-05-23T03:58:03.829Z,14.31
2023-05-23T04:00:31.281Z,14.55
2023-05-23T04:03:00.375Z,14.63
2023-05-23T04:05:27.715Z,14.93
2023-05-23T04:07:55.453Z,15.42
2023-05-23T04:10:23.425Z,15.79
2023-05-23T04:12:51.713Z,15.95
2023-05-23T04:15:21.722Z,16.13
2023-05-23T04:17:58.140Z,16.23
2023-05-23T04:20:26.897Z,16.24
2023-05-23T04:22:54.272Z,16.32
2023-05-23T04:25:22.023Z,16.34
2023-05-23T04:28:02.239Z,16.65
2023-05-23T04:30:30.663Z,16.76
2023-05-23T04:33:00.216Z,17.30
2023-05-23T04:35:29.417Z,17.50
2023-05-23T04:37:57.036Z,17.81
2023-05-23T04:40:26.862Z,17.94
2023-05-23T04:43:18.127Z,18.19
2023-05-23T04:45:50.826Z,18.41
2023-05-23T04:48:28.396Z,18.66
2023-05-23T04:50:57.673Z,18.73
2023-05-23T04:53:25.524Z,19.45
2023-05-23T04:55:53.092Z,19.71
2023-05-23T04:58:20.668Z,20.67
2023-05-23T05:00:48.003Z,21.10
2023-05-23T05:03:17.797Z,21.55
2023-05-23T05:05:46.452Z,21.75
2023-05-23T05:08:15.002Z,21.83
2023-05-23T05:10:42.606Z,22.25
2023-05-23T05:13:11.590Z,22.25
2023-05-23T05:15:46.243Z,22.37
2023-05-23T05:18:14.367Z,22.82
2023-05-23T05:20:42.219Z,23.09
2023-05-23T05:23:10.034Z,23.53
2023-05-23T05:25:38.493Z,24.16
2023-05-23T05:28:06.463Z,23.41
2023-05-23T05:30:46.473Z,24.01
2023-05-23T05:33:14.683Z,23.97
2023-05-23T05:35:42.368Z,24.69
2023-05-23T05:38:11.123Z,24.70
2023-05-23T05:40:40.240Z,24.97
2023-05-23T05:43:07.964Z,25.83
2023-05-23T05:45:35.843Z,25.80
2023-05-23T05:48:03.694Z,25.57
2023-05-23T05:50:31.104Z,26.54
2023-05-23T05:52:58.520Z,26.33
2023-05-23T05:55:25.920Z,26.71
2023-05-23T05:57:55.841Z,27.52
2023-05-23T06:00:25.358Z,26.92
2023-05-23T06:02:57.744Z,27.72
2023-05-23T06:05:37.541Z,28.20
2023-05-23T06:08:05.013Z,28.72
2023-05-23T06:10:32.354Z,29.93
2023-05-23T06:13:00.131Z,29.31
2023-05-23T06:15:27.716Z,30.28
2023-05-23T06:17:55.006Z,29.75
2023-05-23T06:20:22.839Z,29.71
2023-05-23T06:22:50.405Z,30.74
2023-05-23T06:25:18.366Z,30.66
2023-05-23T06:27:47.714Z,30.77
2023-05-23T06:30:15.598Z,30.88
2023-05-23T06:32:42.877Z,31.17
2023-05-23T06:35:10.508Z,31.96
2023-05-23T06:37:43.548Z,30.62
2023-05-23T06:40:13.126Z,31.21
2023-05-23T06:42:40.952Z,32.41
2023-05-23T06:45:19.854Z,32.57
2023-05-23T06:47:48.280Z,33.47
2023-05-23T06:50:15.680Z,31.80
2023-05-23T06:52:43.423Z,33.24
2023-05-23T06:55:14.542Z,33.89
2023-05-23T06:57:42.001Z,33.62
2023-05-23T07:00:10.517Z,34.29
2023-05-23T07:02:46.316Z,34.02
2023-05-23T07:05:15.846Z,34.31
2023-05-23T07:07:48.538Z,35.32
2023-05-23T07:10:16.740Z,35.01
2023-05-23T07:12:47.228Z,35.96
2023-05-23T07:15:16.363Z,36.03
2023-05-23T07:17:56.381Z,35.94
2023-05-23T07:20:23.711Z,36.97
2023-05-23T07:22:54.273Z,36.75
2023-05-23T07:25:23.505Z,36.72
2023-05-23T07:27:52.812Z,36.89
2023-05-23T07:30:22.654Z,36.11
2023-05-23T07:32:50.148Z,36.19
2023-05-23T07:35:18.687Z,36.11
2023-05-23T07:37:49.002Z,36.26
2023-05-23T07:40:17.749Z,36.63
2023-05-23T07:42:45.195Z,37.05
2023-05-23T07:45:13.135Z,37.75
2023-05-23T07:47:43.143Z,38.69
2023-05-23T07:50:11.501Z,38.76
2023-05-23T07:52:39.223Z,39.37
2023-05-23T07:55:08.284Z,39.45
2023-05-23T07:57:35.774Z,36.50
2023-05-23T08:00:03.317Z,36.76
2023-05-23T08:02:31.545Z,37.51
2023-05-23T08:04:59.823Z,38.45
2023-05-23T08:07:27.547Z,39.79
2023-05-23T08:09:59.159Z,39.85
2023-05-23T08:12:26.418Z,39.04
2023-05-23T08:15:02.464Z,38.93
2023-05-23T08:17:33.648Z,39.45
2023-05-23T08:20:01.822Z,38.18
2023-05-23T08:22:30.626Z,38.39
2023-05-23T08:24:58.255Z,39.71
2023-05-23T08:27:27.604Z,39.89
2023-05-23T08:29:58.568Z,39.23
2023-05-23T08:32:26.083Z,38.86
2023-05-23T08:34:53.920Z,38.27
2023-05-23T08:37:21.478Z,40.22
2023-05-23T08:39:49.001Z,41.35
2023-05-23T08:42:30.768Z,40.95
2023-05-23T08:44:58.372Z,41.03
2023-05-23T08:47:26.022Z,39.25
2023-05-23T08:50:02.078Z,39.03
2023-05-23T08:52:33.643Z,37.81
2023-05-23T08:55:06.231Z,39.26
2023-05-23T08:57:36.075Z,38.85
2023-05-23T09:00:20.558Z,39.93
2023-05-23T09:02:48.697Z,39.44
2023-05-23T09:05:36.117Z,39.50
2023-05-23T09:08:03.800Z,39.63
2023-05-23T09:10:31.912Z,39.99
2023-05-23T09:13:01.481Z,39.55
2023-05-23T09:15:31.807Z,39.58
2023-05-23T09:18:03.365Z,38.73
2023-05-23T09:20:33.752Z,37.50
2023-05-23T09:23:08.182Z,35.02
2023-05-23T09:25:40.037Z,34.06
2023-05-23T09:28:07.521Z,33.82
2023-05-23T09:30:40.181Z,35.24
2023-05-23T09:33:08.718Z,36.19
2023-05-23T09:35:36.598Z,38.08
2023-05-23T09:38:03.986Z,38.90
2023-05-23T09:40:33.375Z,39.34
2023-05-23T09:43:07.841Z,39.38
2023-05-23T09:45:35.284Z,39.21
2023-05-23T09:48:03.010Z,37.57
2023-05-23T09:50:34.732Z,38.72
2023-05-23T09:53:04.152Z,38.00
2023-05-23T09:55:31.751Z,38.52
2023-05-23T09:58:01.497Z,38.84
2023-05-23T10:00:29.238Z,38.00
2023-05-23T10:03:13.867Z,38.75
2023-05-23T10:05:48.989Z,39.18
2023-05-23T10:08:19.234Z,38.19
2023-05-23T10:10:58.430Z,38.37
2023-05-23T10:13:30.654Z,37.63
2023-05-23T10:16:20.202Z,37.59
2023-05-23T10:18:55.244Z,37.89
2023-05-23T10:21:36.219Z,37.39
2023-05-23T10:24:05.817Z,37.59
2023-05-23T10:26:33.409Z,37.40
2023-05-23T10:29:01.775Z,37.41
2023-05-23T10:31:30.324Z,37.03
2023-05-23T10:34:28.958Z,36.33
2023-05-23T10:37:10.108Z,36.64
2023-05-23T10:40:20.867Z,36.06
2023-05-23T10:43:10.837Z,36.49
2023-05-23T10:45:42.933Z,35.69
2023-05-23T10:48:33.942Z,35.30
2023-05-23T10:51:06.401Z,35.92
2023-05-23T10:53:40.142Z,35.65
2023-05-23T10:56:10.265Z,34.86
2023-05-23T10:58:39.832Z,35.06
2023-05-23T11:01:15.937Z,35.08
2023-05-23T11:03:54.012Z,35.78
2023-05-23T11:06:38.781Z,35.31
2023-05-23T11:09:26.348Z,34.67
2023-05-23T11:12:03.553Z,34.08
2023-05-23T11:14:33.856Z,32.89
2023-05-23T11:17:13.265Z,31.40
2023-05-23T11:19:55.978Z,30.87
2023-05-23T11:22:30.112Z,30.26
2023-05-23T11:24:59.612Z,29.74
2023-05-23T11:27:34.680Z,29.22
2023-05-23T11:30:13.965Z,28.58
2023-05-23T11:32:43.263Z,27.94
2023-05-23T11:35:11.716Z,27.10
2023-05-23T11:37:40.148Z,26.36
2023-05-23T11:40:28.479Z,26.00
2023-05-23T11:42:56.914Z,25.73
2023-05-23T11:45:25.944Z,25.40
2023-05-23T11:47:54.074Z,24.97
2023-05-23T11:50:21.836Z,24.75
2023-05-23T11:52:52.067Z,24.82
2023-05-23T11:55:23.523Z,24.77
2023-05-23T11:57:52.072Z,24.70
2023-05-23T12:00:20.192Z,24.94
2023-05-23T12:02:49.061Z,25.51
2023-05-23T12:05:16.976Z,25.87
2023-05-23T12:07:49.839Z,26.67
2023-05-23T12:10:18.229Z,27.41
2023-05-23T12:12:45.924Z,28.01
2023-05-23T12:15:13.730Z,27.79
2023-05-23T12:17:48.630Z,26.84
2023-05-23T12:20:16.408Z,26.03
2023-05-23T12:22:44.002Z,25.55
2023-05-23T12:25:12.009Z,25.26
2023-05-23T12:27:44.000Z,25.31
2023-05-23T12:30:19.109Z,25.08
2023-05-23T12:32:47.560Z,24.17
2023-05-23T12:35:16.242Z,23.99
2023-05-23T12:37:47.335Z,24.32
2023-05-23T12:40:19.385Z,24.49
2023-05-23T12:42:53.683Z,24.49
2023-05-23T12:45:37.126Z,24.53
2023-05-23T12:48:06.326Z,24.10
2023-05-23T12:50:34.577Z,24.27
2023-05-23T12:53:02.081Z,23.85
2023-05-23T12:55:29.689Z,23.08
2023-05-23T12:57:57.496Z,22.75
2023-05-23T13:00:24.862Z,22.60
2023-05-23T13:02:52.705Z,22.27
2023-05-23T13:05:21.081Z,21.96
2023-05-23T13:07:48.626Z,21.26
2023-05-23T13:10:16.233Z,21.51
2023-05-23T13:12:43.529Z,21.49
2023-05-23T13:15:12.049Z,21.64
2023-05-23T13:17:39.526Z,21.84
2023-05-23T13:23:13.076Z,22.18
2023-05-23T13:25:41.090Z,22.32
2023-05-23T13:28:08.802Z,22.44
2023-05-23T13:30:36.361Z,22.27
2023-05-23T13:33:04.173Z,22.34
2023-05-23T13:35:31.716Z,22.43
2023-05-23T13:37:59.004Z,22.13
2023-05-23T13:40:26.624Z,21.75
2023-05-23T13:42:54.105Z,21.44
2023-05-23T13:45:23.379Z,21.46
2023-05-23T13:47:51.077Z,21.76
2023-05-23T13:50:18.856Z,21.52
2023-05-23T13:52:48.978Z,21.46
2023-05-23T13:55:17.507Z,21.91
2023-05-23T13:57:45.522Z,22.03
2023-05-23T14:00:14.403Z,22.33
2023-05-23T14:02:41.840Z,22.67
2023-05-23T14:05:09.910Z,22.65
2023-05-23T14:07:38.422Z,22.91
2023-05-23T14:10:07.315Z,22.92
2023-05-23T14:12:34.607Z,22.50
2023-05-23T14:15:01.847Z,22.13
2023-05-23T14:17:29.256Z,22.15
2023-05-23T14:19:56.700Z,22.42
2023-05-23T14:22:23.922Z,22.26
2023-05-23T14:24:51.247Z,22.36
2023-05-23T14:27:19.161Z,22.21
2023-05-23T14:29:47.116Z,22.58
2023-05-23T14:32:14.445Z,22.81
2023-05-23T14:34:42.104Z,22.21
2023-05-23T14:37:09.562Z,21.90
2023-05-23T14:39:36.892Z,21.83
2023-05-23T14:42:04.697Z,21.38
2023-05-23T14:44:32.011Z,21.05
2023-05-23T14:46:59.347Z,20.91
2023-05-23T14:49:26.835Z,20.56
2023-05-23T14:51:54.139Z,20.16
2023-05-23T14:54:21.521Z,20.15
2023-05-23T14:56:51.168Z,19.64
2023-05-23T14:59:20.288Z,19.61
2023-05-23T15:01:47.631Z,19.75
2023-05-23T15:04:15.129Z,19.79
2023-05-23T15:06:42.961Z,19.76
2023-05-23T15:09:10.743Z,19.34
2023-05-23T15:11:39.109Z,19.27
2023-05-23T15:14:06.757Z,19.21
2023-05-23T15:16:36.659Z,19.13
2023-05-23T15:19:05.198Z,18.90
2023-05-23T15:21:32.525Z,18.83
2023-05-23T15:24:00.030Z,19.09
2023-05-23T15:26:27.527Z,19.29
2023-05-23T15:28:55.137Z,19.24
2023-05-23T15:31:22.555Z,19.22
2023-05-23T15:33:50.029Z,19.42
2023-05-23T15:36:17.608Z,19.62
2023-05-23T15:38:45.071Z,19.80
2023-05-23T15:41:12.655Z,20.04
2023-05-23T15:43:40.007Z,20.11
2023-05-23T15:46:07.481Z,20.15
2023-05-23T15:48:35.100Z,20.48
2023-05-23T15:51:02.443Z,20.35
2023-05-23T15:53:34.264Z,20.27
2023-05-23T15:56:04.806Z,19.90
2023-05-23T15:58:32.411Z,19.91
2023-05-23T16:00:59.670Z,19.90
2023-05-23T16:03:27.001Z,19.97
2023-05-23T16:05:54.268Z,20.25
2023-05-23T16:08:21.621Z,20.16
2023-05-23T16:10:49.250Z,20.20
2023-05-23T16:13:18.058Z,19.89
2023-05-23T16:15:45.707Z,19.92
2023-05-23T16:18:14.521Z,20.25
2023-05-23T16:20:42.102Z,20.30
2023-05-23T16:23:09.435Z,20.31
2023-05-23T16:25:36.784Z,20.10
2023-05-23T16:28:04.293Z,19.91
2023-05-23T16:30:32.430Z,19.69
2023-05-23T16:33:00.054Z,19.79
2023-05-23T16:35:27.363Z,19.74
2023-05-23T16:37:54.692Z,19.79
2023-05-23T16:40:22.164Z,19.85
2023-05-23T16:42:49.534Z,19.93
2023-05-23T16:45:16.889Z,19.99
2023-05-23T16:47:44.377Z,19.95
2023-05-23T16:50:12.171Z,19.84
2023-05-23T16:52:40.187Z,19.76
2023-05-23T16:55:08.130Z,19.59
2023-05-23T16:57:35.652Z,19.61
2023-05-23T17:00:05.443Z,19.82
2023-05-23T17:02:33.055Z,19.91
2023-05-23T17:05:00.376Z,19.82
2023-05-23T17:07:27.872Z,19.87
2023-05-23T17:09:55.328Z,19.82
2023-05-23T17:12:22.918Z,19.93
2023-05-23T17:14:50.193Z,19.79
2023-05-23T17:17:17.617Z,19.73
2023-05-23T17:19:45.360Z,19.77
2023-05-23T17:22:12.993Z,19.90
2023-05-23T17:24:40.726Z,19.94
2023-05-23T17:27:08.263Z,19.95
2023-05-23T17:29:35.579Z,19.88
2023-05-23T17:32:03.146Z,19.90
2023-05-23T17:34:30.541Z,19.87
2023-05-23T17:36:58.013Z,19.82
2023-05-23T17:39:25.581Z,19.62
2023-05-23T17:41:53.254Z,19.72
2023-05-23T17:44:20.901Z,19.65
2023-05-23T17:46:48.309Z,19.54
2023-05-23T17:49:15.924Z,19.59
2023-05-23T17:51:43.461Z,19.47
2023-05-23T17:54:10.904Z,19.17
2023-05-23T17:56:38.269Z,19.01
2023-05-23T17:59:05.898Z,18.95
2023-05-23T18:01:34.474Z,18.89
2023-05-23T18:04:02.324Z,18.86
2023-05-23T18:06:29.669Z,18.70
2023-05-23T18:08:56.951Z,18.59
2023-05-23T18:11:25.878Z,18.57
2023-05-23T18:13:53.842Z,18.74
2023-05-23T18:16:21.833Z,18.65
2023-05-23T18:18:49.167Z,18.79
2023-05-23T18:21:18.143Z,18.87
2023-05-23T18:23:45.632Z,18.98
2023-05-23T18:26:13.061Z,19.07
2023-05-23T18:28:40.668Z,19.15
2023-05-23T18:31:07.986Z,19.08
2023-05-23T18:33:35.734Z,18.85
2023-05-23T18:36:03.586Z,18.80
2023-05-23T18:38:31.204Z,18.77
2023-05-23T18:40:58.745Z,18.80
2023-05-23T18:43:26.385Z,18.57
2023-05-23T18:45:53.598Z,18.37
2023-05-23T18:48:21.792Z,18.38
2023-05-23T18:50:49.115Z,18.41
2023-05-23T18:53:16.618Z,18.22
2023-05-23T18:55:44.206Z,18.00
2023-05-23T18:58:11.601Z,18.16
2023-05-23T19:00:39.069Z,18.23
2023-05-23T19:03:06.672Z,18.19
2023-05-23T19:05:34.057Z,18.12
2023-05-23T19:08:01.380Z,18.27
2023-05-23T19:10:29.008Z,18.13
2023-05-23T19:12:56.308Z,18.25
2023-05-23T19:15:24.339Z,18.08
2023-05-23T19:17:52.158Z,17.86
2023-05-23T19:20:20.511Z,17.79
2023-05-23T19:22:52.272Z,17.86
2023-05-23T19:25:21.689Z,17.76
2023-05-23T19:27:49.130Z,17.55
2023-05-23T19:30:16.737Z,17.66
2023-05-23T19:32:44.267Z,17.55
2023-05-23T19:35:12.798Z,17.56
2023-05-23T19:37:42.201Z,17.60
2023-05-23T19:40:10.845Z,17.67
2023-05-23T19:42:38.543Z,17.73
2023-05-23T19:45:06.891Z,17.65
2023-05-23T19:47:34.285Z,17.54
2023-05-23T19:50:02.008Z,17.68
2023-05-23T19:52:29.393Z,17.63
2023-05-23T19:54:57.036Z,17.65
2023-05-23T19:57:26.137Z,17.69
2023-05-23T19:59:54.139Z,17.72
2023-05-23T20:02:22.123Z,17.71
2023-05-23T20:04:49.453Z,17.56
2023-05-23T20:07:16.882Z,17.56
2023-05-23T20:09:44.305Z,17.57
2023-05-23T20:12:11.753Z,17.66
2023-05-23T20:14:39.103Z,17.67
2023-05-23T20:17:08.124Z,17.55
2023-05-23T20:19:36.060Z,17.39
2023-05-23T20:22:03.460Z,17.50
2023-05-23T20:24:32.300Z,17.46
2023-05-23T20:26:59.993Z,17.45
2023-05-23T20:29:27.716Z,17.45
2023-05-23T20:31:56.346Z,17.11
2023-05-23T20:34:23.812Z,17.19
2023-05-23T20:36:51.295Z,17.14
2023-05-23T20:39:21.825Z,17.26
2023-05-23T20:41:49.688Z,17.31
2023-05-23T20:44:17.308Z,17.35
2023-05-23T20:46:45.020Z,17.34
2023-05-23T20:49:12.542Z,17.38
2023-05-23T20:51:39.979Z,17.31
2023-05-23T20:54:07.619Z,17.30
2023-05-23T20:56:35.280Z,17.30
2023-05-23T20:59:02.631Z,17.18
2023-05-23T21:01:30.595Z,16.99
2023-05-23T21:03:57.999Z,16.83
2023-05-23T21:06:25.501Z,17.03
2023-05-23T21:08:52.939Z,16.86
2023-05-23T21:11:20.279Z,17.20
2023-05-23T21:13:47.753Z,17.14
2023-05-23T21:16:15.820Z,17.14
2023-05-23T21:18:43.252Z,17.12
2023-05-23T21:21:10.605Z,17.16
2023-05-23T21:23:38.071Z,17.17
2023-05-23T21:26:05.633Z,16.97
2023-05-23T21:28:32.951Z,16.99
2023-05-23T21:31:03.425Z,17.35
2023-05-23T21:33:31.037Z,17.19
2023-05-23T21:36:00.070Z,17.04
2023-05-23T21:38:29.667Z,17.12
2023-05-23T21:40:57.070Z,17.22
2023-05-23T21:43:24.430Z,17.29
2023-05-23T21:45:51.816Z,17.44
2023-05-23T21:48:19.153Z,17.30
2023-05-23T21:50:46.605Z,17.35
2023-05-23T21:53:14.015Z,17.37
2023-05-23T21:55:41.304Z,17.26
2023-05-23T21:58:08.506Z,17.16
2023-05-23T22:00:35.944Z,17.29
2023-05-23T22:03:03.295Z,17.28
2023-05-23T22:05:30.782Z,17.30
2023-05-23T22:07:58.061Z,17.26
2023-05-23T22:10:25.541Z,17.24
2023-05-23T22:12:52.954Z,17.34
2023-05-23T22:15:20.424Z,17.07
2023-05-23T22:17:47.912Z,17.15
2023-05-23T22:20:16.174Z,17.21
2023-05-23T22:22:43.729Z,17.33
2023-05-23T22:25:11.533Z,17.25
2023-05-23T22:27:38.884Z,17.21
2023-05-23T22:30:07.437Z,17.16
2023-05-23T22:32:34.912Z,17.21
2023-05-23T22:35:03.775Z,17.19
2023-05-23T22:37:31.060Z,17.12
2023-05-23T22:39:58.340Z,17.11
2023-05-23T22:42:25.825Z,17.18
2023-05-23T22:44:53.198Z,17.05
2023-05-23T22:47:20.617Z,17.20
2023-05-23T22:49:48.067Z,17.22
2023-05-23T22:52:16.621Z,17.30
2023-05-23T22:54:44.169Z,17.32
2023-05-23T22:57:11.573Z,17.22
2023-05-23T22:59:39.196Z,17.13
2023-05-23T23:02:06.687Z,17.11
2023-05-23T23:04:34.164Z,17.11
2023-05-23T23:07:02.721Z,17.18
2023-05-23T23:09:30.023Z,17.19
2023-05-23T23:11:57.282Z,16.90
2023-05-23T23:14:24.535Z,17.01
2023-05-23T23:16:53.477Z,16.90
2023-05-23T23:19:20.799Z,16.95
2023-05-23T23:21:48.129Z,16.96
2023-05-23T23:24:15.298Z,17.13
2023-05-23T23:26:42.562Z,16.93
2023-05-23T23:29:09.814Z,16.85
2023-05-23T23:31:37.079Z,17.07
2023-05-23T23:34:04.516Z,16.96
2023-05-23T23:36:31.716Z,16.78
2023-05-23T23:38:59.063Z,16.86
2023-05-23T23:41:27.027Z,16.74
2023-05-23T23:43:54.316Z,16.77
2023-05-23T23:46:21.751Z,16.96
2023-05-23T23:48:49.157Z,16.83
2023-05-23T23:51:16.522Z,17.04
2023-05-23T23:53:45.033Z,17.18
2023-05-23T23:56:14.573Z,17.03
2023-05-23T23:58:41.889Z,16.88
